MDT,Max TemperatureF,Mean TemperatureF,Min TemperatureF,Max Dew PointF,MeanDew PointF,Min DewpointF,Max Humidity, Mean Humidity, Min Humidity, Max Sea Level PressureIn, Mean Sea Level PressureIn, Min Sea Level PressureIn, Max VisibilityMiles, Mean VisibilityMiles, Min VisibilityMiles, Max Wind SpeedMPH, Mean Wind SpeedMPH, Max Gust SpeedMPH,PrecipitationIn, CloudCover, Events, WindDirDegrees
2013-10-1,78,54,32,27,19,12,61,31,9,30.01,29.89,29.81,10,10,10,13,4,24,0.00,0,,219
2013-10-2,75,54,34,29,21,11,56,32,12,30.02,29.88,29.79,10,10,10,16,6,24,0.00,0,,212
2013-10-3,73,54,37,35,25,14,70,35,14,29.83,29.71,29.58,10,10,10,25,9,37,0.00,0,,235
2013-10-4,59,46,37,28,19,9,60,36,17,30.17,29.91,29.56,10,10,10,23,12,32,0.00,2,,5
2013-10-5,59,39,21,19,16,12,69,42,21,30.34,30.27,30.18,10,10,10,14,3,24,0.00,0,,25
2013-10-6,71,45,21,16,12,3,65,34,9,30.41,30.27,30.14,10,10,10,9,1,,0.00,0,,59
2013-10-7,75,51,27,20,14,9,58,28,9,30.28,30.08,29.89,10,10,10,12,2,18,0.00,0,,353
2013-10-8,73,55,37,26,22,14,47,29,17,29.97,29.79,29.65,10,10,10,22,7,30,0.00,0,,227
2013-10-9,73,56,39,28,24,19,51,30,14,29.78,29.64,29.53,10,10,10,29,8,46,0.00,1,,193
2013-10-10,55,45,34,43,36,29,93,78,41,30.01,29.79,29.45,10,8,2,38,14,47,0.43,6,Rain-Snow-Thunderstorm,233
2013-10-11,57,42,28,36,32,27,92,72,39,30.11,30.05,29.96,10,10,10,5,2,,0.00,1,,189
2013-10-12,66,46,28,33,30,22,96,59,19,30.16,30.01,29.90,10,10,10,10,3,18,0.00,0,,41
2013-10-13,73,54,36,38,30,24,79,44,18,30.01,29.84,29.73,10,10,10,29,9,39,0.00,0,,216
2013-10-14,61,48,32,31,23,14,76,43,17,30.05,29.92,29.79,10,10,10,16,6,25,0.00,1,,242
2013-10-15,63,44,26,28,21,10,84,48,13,30.11,29.98,29.86,10,10,10,17,3,24,0.00,1,,170
2013-10-16,57,42,28,29,20,11,82,45,18,30.19,30.05,29.90,10,10,2,14,6,21,0.00,2,,329
2013-10-17,62,40,19,19,14,12,78,43,15,30.27,30.10,29.94,10,10,10,14,2,,0.00,0,,230
2013-10-18,60,40,21,18,15,12,68,42,18,30.24,30.09,29.96,10,10,10,10,3,,0.00,0,,22
2013-10-19,64,42,19,18,15,9,72,42,15,30.34,30.17,30.03,10,10,9,14,2,20,0.00,0,,3
2013-10-20,66,44,23,20,14,8,69,36,11,30.16,29.99,29.84,10,10,10,18,4,23,0.00,0,,288
2013-10-21,63,44,24,19,15,10,60,36,18,30.22,30.07,29.91,10,10,10,12,2,18,0.00,0,,31
2013-10-22,68,44,21,18,13,8,66,35,11,30.35,30.18,30.07,10,10,10,10,2,,0.00,0,,38
2013-10-23,71,48,25,22,18,14,66,36,12,30.25,30.07,29.95,10,10,10,10,3,,0.00,0,,9
2013-10-24,70,50,30,44,31,14,83,50,22,30.21,30.06,29.94,10,10,10,23,4,29,0.03,4,Rain-Thunderstorm,92
2013-10-25,64,50,36,45,41,35,97,78,45,30.29,30.09,29.90,10,10,4,25,10,34,0.32,4,Rain-Thunderstorm,70
2013-10-26,63,46,30,42,36,29,96,73,38,30.37,30.22,30.12,10,10,10,12,3,18,0.00,0,,53
2013-10-27,66,47,28,37,29,20,96,58,18,30.18,29.98,29.68,10,10,10,18,3,23,0.00,0,,213
2013-10-28,64,52,39,28,23,17,65,34,17,29.78,29.69,29.60,10,10,10,30,13,41,0.00,0,,205
2013-10-29,64,52,41,35,26,20,68,43,20,29.83,29.74,29.60,10,10,10,32,14,48,0.00,2,,216
2013-10-30,50,38,24,31,28,22,92,69,38,30.09,29.92,29.78,10,10,9,32,7,47,0.00,5,Rain,253
2013-10-31,52,35,18,28,23,16,92,65,33,30.31,30.16,30.05,10,10,10,17,3,22,0.00,0,,286